PST,Max TemperatureF,Mean TemperatureF,Min TemperatureF,Max Dew PointF,MeanDew PointF,Min DewpointF,Max Humidity, Mean Humidity, Min Humidity, Max Sea Level PressureIn, Mean Sea Level PressureIn, Min Sea Level PressureIn, Max VisibilityMiles, Mean VisibilityMiles, Min VisibilityMiles, Max Wind SpeedMPH, Mean Wind SpeedMPH, Max Gust SpeedMPH,PrecipitationIn, CloudCover, Events, WindDirDegrees
2013-1-1,60,50,39,31,21,11,70,44,18,30.29,30.24,30.19,10,10,10,10,4,12,0.00,3,,320
2013-1-2,66,55,44,18,12,8,33,22,10,30.23,30.14,30.06,10,10,10,10,5,13,0.00,0,,277
2013-1-3,68,56,44,15,7,0,31,19,7,30.23,30.16,30.10,10,10,10,18,6,23,0.00,0,,296
2013-1-4,63,51,38,19,9,4,28,19,9,30.32,30.26,30.22,10,10,10,10,5,14,0.00,0,,346
2013-1-5,63,50,36,20,14,7,41,26,11,30.35,30.27,30.18,10,10,10,10,5,12,0.00,0,,346
2013-1-6,63,51,38,37,25,12,61,38,15,30.17,30.05,29.98,10,10,10,22,4,28,0.00,2,,310
2013-1-7,71,57,43,41,23,11,76,44,11,30.05,30.00,29.96,10,10,10,30,8,36,T,2,Rain,313
2013-1-8,80,64,47,31,26,16,36,26,15,30.10,30.05,29.99,10,10,10,14,6,17,0.00,0,,278
2013-1-9,73,62,50,36,32,29,48,35,22,30.16,30.05,29.92,10,10,10,9,3,12,0.00,1,,6
2013-1-10,64,57,49,41,30,10,77,48,19,30.00,29.86,29.77,10,10,10,28,10,36,T,2,Rain,38
2013-1-11,56,47,38,24,15,6,44,29,14,30.13,30.05,30.01,10,10,10,16,5,20,0.00,2,,113
2013-1-12,55,46,37,26,16,7,54,35,15,30.17,30.11,30.04,10,10,10,16,4,21,0.00,1,,322
2013-1-13,54,43,32,17,10,1,47,31,15,30.22,30.13,30.05,10,10,10,13,4,17,0.00,1,,313
2013-1-14,53,43,33,6,-4,-13,32,20,7,30.38,30.31,30.23,10,10,10,16,8,22,0.00,0,,199
2013-1-15,61,48,35,19,11,0,32,23,14,30.49,30.42,30.36,10,10,10,14,6,17,0.00,0,,135
2013-1-16,68,53,37,26,20,14,48,33,17,30.42,30.34,30.25,10,10,10,13,5,16,0.00,0,,154
2013-1-17,73,61,49,20,15,10,32,21,9,30.30,30.22,30.15,10,10,10,10,4,13,0.00,0,,265
2013-1-18,77,62,47,23,17,13,29,19,9,30.23,30.17,30.11,10,10,10,9,3,12,0.00,0,,295
2013-1-19,77,62,47,18,13,6,26,17,7,30.25,30.18,30.13,10,10,10,9,4,12,0.00,0,,271
2013-1-20,79,63,46,16,8,3,25,16,6,30.17,30.12,30.04,10,10,10,12,4,13,0.00,0,,287
2013-1-21,80,66,51,10,6,-2,18,11,4,30.14,30.09,30.04,10,10,10,10,4,15,0.00,0,,280
2013-1-22,79,62,44,25,12,4,25,16,6,30.15,30.11,30.06,10,10,10,10,5,14,0.00,1,,343
2013-1-23,77,65,52,34,24,14,39,24,9,30.14,30.08,30.04,10,10,10,10,4,13,0.00,2,,301
2013-1-24,69,65,60,52,40,31,45,37,29,30.21,30.14,30.06,10,10,10,15,3,17,T,6,Rain,317
2013-1-25,61,59,57,58,56,51,90,85,80,30.20,30.09,29.98,10,9,4,8,3,10,0.21,8,Rain,302
2013-1-26,68,63,57,58,57,55,100,84,68,29.97,29.91,29.85,10,9,4,10,3,14,0.09,7,Rain,104
2013-1-27,66,62,57,58,50,33,100,72,43,29.96,29.92,29.86,10,7,2,15,6,18,0.00,6,,90
2013-1-28,62,53,44,38,29,20,76,51,25,30.12,30.04,29.95,10,10,10,25,4,33,0.00,2,,359
2013-1-29,65,54,42,40,28,21,67,44,20,30.23,30.14,30.06,10,10,10,6,2,12,0.00,1,,233
2013-1-30,69,56,42,41,37,31,83,54,24,30.35,30.28,30.22,10,10,10,7,1,14,0.00,0,,25
2013-1-31,75,60,44,43,38,35,76,50,23,30.25,30.19,30.11,10,10,10,9,3,10,0.00,0,,346